Time;durP1;ratioP1;P1;durP2;ratioP2;P2;SDS_P1;SDS_P2;PMS_P1;PMS_P2;Temp;Humidity;BMP_temperature;BMP_pressure;BME280_temperature;BME280_humidity;BME280_pressure;Samples;Min_cycle;Max_cycle;Signal;HPM_P1;HPM_P2
2021/08/09 00:01:58;;;;;;;6.93;2.47;;;;;;;-145.01;100.00;64805.59;4993305;28;20057;-59
2021/08/09 00:04:24;;;;;;;7.70;2.40;;;;;;;-145.01;100.00;64805.59;4993840;28;20035;-60
2021/08/09 00:06:49;;;;;;;10.65;2.72;;;;;;;-145.01;100.00;64805.59;4993244;28;20034;-60
2021/08/09 00:09:14;;;;;;;4.43;2.22;;;;;;;-145.01;100.00;64805.59;4993488;28;20050;-60
2021/08/09 00:11:40;;;;;;;9.05;2.85;;;;;;;-145.01;100.00;64805.59;4993312;28;20105;-59
2021/08/09 00:14:05;;;;;;;5.03;2.22;;;;;;;-145.01;100.00;64805.59;4993677;28;20433;-60
2021/08/09 00:16:31;;;;;;;6.28;2.78;;;;;;;-145.01;100.00;64805.59;4991864;28;20409;-60
2021/08/09 00:18:56;;;;;;;7.03;2.60;;;;;;;-145.01;100.00;64805.59;4992468;28;20088;-59
2021/08/09 00:21:21;;;;;;;8.07;2.67;;;;;;;-145.01;100.00;64805.59;4992966;28;20385;-59
2021/08/09 00:23:47;;;;;;;5.20;2.40;;;;;;;-145.01;100.00;64805.59;4993651;28;20066;-60
2021/08/09 00:26:12;;;;;;;13.30;2.47;;;;;;;-145.01;100.00;64805.59;4993188;28;20043;-60
2021/08/09 00:28:38;;;;;;;5.47;2.30;;;;;;;-145.01;100.00;64805.59;4993479;28;20037;-60
2021/08/09 00:31:03;;;;;;;6.47;2.30;;;;;;;-145.01;100.00;64805.59;4993007;28;20034;-60
2021/08/09 00:33:29;;;;;;;4.15;2.20;;;;;;;-145.01;100.00;64805.59;4993308;28;20511;-60
2021/08/09 00:35:54;;;;;;;4.80;2.20;;;;;;;-145.01;100.00;64805.59;4991512;28;20461;-60
2021/08/09 00:38:20;;;;;;;5.72;2.33;;;;;;;-145.01;100.00;64805.59;4993330;28;20034;-60
2021/08/09 00:40:46;;;;;;;7.13;2.55;;;;;;;-145.01;100.00;64805.59;4992667;28;20034;-60
2021/08/09 00:43:11;;;;;;;7.65;2.60;;;;;;;-145.01;100.00;64805.59;4993426;28;20030;-60
2021/08/09 00:45:36;;;;;;;7.53;2.45;;;;;;;-145.01;100.00;64805.59;4992911;28;20050;-60
2021/08/09 00:48:03;;;;;;;9.02;2.70;;;;;;;-145.01;100.00;64805.59;4993308;28;20045;-60
2021/08/09 00:50:29;;;;;;;6.38;2.53;;;;;;;-145.01;100.00;64805.59;4993228;28;20388;-60
2021/08/09 00:52:54;;;;;;;5.13;2.40;;;;;;;-145.01;100.00;64805.59;4979615;28;20034;-60
2021/08/09 00:55:20;;;;;;;7.22;2.70;;;;;;;-145.01;100.00;64805.59;4996864;28;20172;-59
2021/08/09 00:57:45;;;;;;;5.55;2.40;;;;;;;-145.01;100.00;64805.59;4997381;28;20041;-60
2021/08/09 01:00:11;;;;;;;6.10;2.63;;;;;;;-145.01;100.00;64805.59;4995517;28;20519;-60
2021/08/09 01:02:36;;;;;;;10.32;2.53;;;;;;;-145.01;100.00;64805.59;4997239;28;20077;-60
2021/08/09 01:05:03;;;;;;;4.57;2.50;;;;;;;-145.01;100.00;64805.59;4995531;28;20018;-60
2021/08/09 01:07:32;;;;;;;8.20;2.38;;;;;;;-145.01;100.00;64805.59;4996621;28;20046;-60
2021/08/09 01:10:10;;;;;;;6.95;2.45;;;;;;;-145.01;100.00;64805.59;4995957;28;20116;-60
2021/08/09 01:12:41;;;;;;;7.72;2.60;;;;;;;-145.01;100.00;64805.59;4995559;28;20497;-60
2021/08/09 01:15:29;;;;;;;5.60;2.30;;;;;;;-145.01;100.00;64805.59;4996609;28;20034;-60
2021/08/09 01:17:55;;;;;;;6.78;2.42;;;;;;;-145.01;100.00;64805.59;4995946;28;20385;-60
2021/08/09 01:20:48;;;;;;;5.30;2.05;;;;;;;-145.01;100.00;64805.59;4995256;28;20053;-60
2021/08/09 01:23:45;;;;;;;5.22;2.13;;;;;;;-145.01;100.00;64805.59;4995955;28;20034;-60
2021/08/09 01:26:19;;;;;;;4.28;2.60;;;;;;;-145.01;100.00;64805.59;4996368;28;20400;-60
2021/08/09 01:28:44;;;;;;;4.50;2.25;;;;;;;-145.01;100.00;64805.59;4995381;28;20033;-60
2021/08/09 01:31:10;;;;;;;9.30;2.65;;;;;;;-145.01;100.00;64805.59;4978794;28;20046;-60
2021/08/09 01:33:35;;;;;;;6.20;2.35;;;;;;;-145.01;100.00;64805.59;4995422;28;20030;-60
2021/08/09 01:36:01;;;;;;;4.93;2.38;;;;;;;-145.01;100.00;64805.59;4975058;28;20485;-60
2021/08/09 01:38:27;;;;;;;5.90;2.40;;;;;;;-145.01;100.00;64805.59;4959829;28;20053;-60
2021/08/09 01:40:56;;;;;;;6.43;2.58;;;;;;;-145.01;100.00;64805.59;4975550;28;20027;-60
2021/08/09 01:43:22;;;;;;;5.30;2.50;;;;;;;-145.01;100.00;64805.59;4975626;28;20450;-60
2021/08/09 01:45:48;;;;;;;5.70;2.35;;;;;;;-145.01;100.00;64805.59;4959267;28;20045;-60
2021/08/09 01:48:13;;;;;;;6.63;2.20;;;;;;;-145.01;100.00;64805.59;4959800;28;20034;-60
2021/08/09 01:50:39;;;;;;;7.28;2.60;;;;;;;-145.01;100.00;64805.59;4976390;28;20038;-60
2021/08/09 01:53:05;;;;;;;4.15;2.35;;;;;;;-145.01;100.00;64805.59;4975552;28;20042;-59
2021/08/09 01:55:30;;;;;;;7.05;2.50;;;;;;;-145.01;100.00;64805.59;4959331;28;20473;-59
2021/08/09 01:57:55;;;;;;;4.35;2.22;;;;;;;-145.01;100.00;64805.59;4976596;28;20023;-60
2021/08/09 02:00:21;;;;;;;4.20;2.28;;;;;;;-145.01;100.00;64805.59;4976168;28;20038;-60
2021/08/09 02:02:48;;;;;;;8.00;2.30;;;;;;;-145.01;100.00;64805.59;4991695;28;20027;-60
2021/08/09 02:05:15;;;;;;;4.03;2.33;;;;;;;-145.01;100.00;64805.59;4976192;28;20031;-60
2021/08/09 02:07:46;;;;;;;5.97;2.50;;;;;;;-145.01;100.00;64805.59;4976396;28;20085;-60
2021/08/09 02:10:20;;;;;;;4.85;2.47;;;;;;;-145.01;100.00;64805.59;4976426;28;20101;-60
2021/08/09 02:13:05;;;;;;;5.43;2.38;;;;;;;-145.01;100.00;64805.59;4991438;28;20470;-59
2021/08/09 02:15:59;;;;;;;8.05;2.72;;;;;;;-145.01;100.00;64805.59;4974894;28;20034;-60
2021/08/09 02:18:43;;;;;;;5.15;2.42;;;;;;;-145.01;100.00;64805.59;4976292;28;20031;-60
2021/08/09 02:21:11;;;;;;;8.02;2.30;;;;;;;-145.01;100.00;64805.59;4974806;28;20126;-60
2021/08/09 02:23:38;;;;;;;8.63;2.35;;;;;;;-145.01;100.00;64805.59;4976413;28;20057;-60
2021/08/09 02:26:04;;;;;;;3.92;2.03;;;;;;;-145.01;100.00;64805.59;4975768;28;20508;-60
2021/08/09 02:28:30;;;;;;;5.63;2.67;;;;;;;-145.01;100.00;64805.59;4991104;28;20031;-60
2021/08/09 02:31:00;;;;;;;11.82;3.00;;;;;;;-145.01;100.00;64805.59;4974288;28;20027;-60
2021/08/09 02:33:26;;;;;;;8.05;2.50;;;;;;;-145.01;100.00;64805.59;4958934;28;20065;-60
2021/08/09 02:35:51;;;;;;;7.18;2.35;;;;;;;-145.01;100.00;64805.59;4958426;28;20082;-59
2021/08/09 02:38:17;;;;;;;10.52;2.55;;;;;;;-145.01;100.00;64805.59;4974721;28;20035;-60
2021/08/09 02:40:42;;;;;;;5.25;2.50;;;;;;;-145.01;100.00;64805.59;4975374;28;20042;-60
2021/08/09 02:43:08;;;;;;;5.78;2.50;;;;;;;-145.01;100.00;64805.59;4974618;28;20411;-60
2021/08/09 02:45:34;;;;;;;5.20;2.33;;;;;;;-145.01;100.00;64805.59;4974448;28;20042;-60
2021/08/09 02:47:59;;;;;;;7.00;2.58;;;;;;;-145.01;100.00;64805.59;4958624;28;20038;-60
2021/08/09 02:50:24;;;;;;;5.60;2.70;;;;;;;-145.01;100.00;64805.59;4974112;28;20057;-59
2021/08/09 02:52:50;;;;;;;10.50;2.60;;;;;;;-145.01;100.00;64805.59;4974451;28;20038;-60
2021/08/09 02:55:16;;;;;;;4.88;2.67;;;;;;;-145.01;100.00;64805.59;4975428;28;20027;-60
2021/08/09 02:57:41;;;;;;;9.52;2.85;;;;;;;-145.01;100.00;64805.59;4974288;28;20049;-60
2021/08/09 03:00:07;;;;;;;4.65;2.85;;;;;;;-145.01;100.00;64805.59;4974051;28;20050;-59
2021/08/09 03:02:36;;;;;;;5.45;2.63;;;;;;;-145.01;100.00;64805.59;4974293;28;20027;-60
2021/08/09 03:05:02;;;;;;;6.43;2.55;;;;;;;-145.01;100.00;64805.59;4974043;28;20031;-60
2021/08/09 03:07:27;;;;;;;11.35;2.40;;;;;;;-145.01;100.00;64805.59;4975409;28;20046;-60
2021/08/09 03:09:53;;;;;;;5.40;2.40;;;;;;;-145.01;100.00;64805.59;4975450;28;20026;-60
2021/08/09 03:12:18;;;;;;;5.25;2.58;;;;;;;-145.01;100.00;64805.59;4957337;28;20069;-60
2021/08/09 03:14:50;;;;;;;10.93;2.90;;;;;;;-145.01;100.00;64805.59;4957517;28;20030;-60
2021/08/09 03:17:16;;;;;;;5.10;2.40;;;;;;;-145.01;100.00;64805.59;4974855;28;20035;-60
2021/08/09 03:19:41;;;;;;;8.40;2.65;;;;;;;-145.01;100.00;64805.59;4975293;28;20097;-60
2021/08/09 03:22:06;;;;;;;10.48;2.60;;;;;;;-145.01;100.00;64805.59;4974682;28;20035;-60
2021/08/09 03:24:32;;;;;;;6.63;2.38;;;;;;;-145.01;100.00;64805.59;4975110;28;20019;-60
2021/08/09 03:26:58;;;;;;;8.60;2.55;;;;;;;-145.01;100.00;64805.59;4974592;28;20039;-60
2021/08/09 03:29:25;;;;;;;7.00;2.60;;;;;;;-145.01;100.00;64805.59;4975319;28;20038;-60
2021/08/09 03:31:51;;;;;;;5.55;2.45;;;;;;;-145.01;100.00;64805.59;4974558;28;20047;-60
2021/08/09 03:34:17;;;;;;;5.78;2.40;;;;;;;-145.01;100.00;64805.59;4975012;28;20029;-60
2021/08/09 03:36:45;;;;;;;5.35;2.70;;;;;;;-145.01;100.00;64805.59;4974423;28;20039;-60
2021/08/09 03:39:11;;;;;;;3.90;2.40;;;;;;;-145.01;100.00;64805.59;5006198;28;20019;-60
2021/08/09 03:41:36;;;;;;;5.63;2.42;;;;;;;-145.01;100.00;64805.59;4974623;28;20483;-60
2021/08/09 03:44:02;;;;;;;6.45;2.42;;;;;;;-145.01;100.00;64805.59;4976736;28;20085;-59
2021/08/09 03:46:28;;;;;;;6.95;2.38;;;;;;;-145.01;100.00;64805.59;4993798;28;20061;-60
2021/08/09 03:48:54;;;;;;;9.70;2.78;;;;;;;-145.01;100.00;64805.59;4994168;28;20030;-60
2021/08/09 03:51:19;;;;;;;10.25;2.58;;;;;;;-145.01;100.00;64805.59;4993696;28;20112;-60
2021/08/09 03:53:45;;;;;;;5.43;2.33;;;;;;;-145.01;100.00;64805.59;4993889;28;20042;-60
2021/08/09 03:56:10;;;;;;;5.25;2.47;;;;;;;-145.01;100.00;64805.59;4993809;28;20042;-60
2021/08/09 03:58:35;;;;;;;5.45;2.40;;;;;;;-145.01;100.00;64805.59;4994071;28;20030;-59
2021/08/09 04:01:01;;;;;;;6.07;2.20;;;;;;;-145.01;100.00;64805.59;4993619;28;20042;-60
2021/08/09 04:03:26;;;;;;;6.57;2.80;;;;;;;-145.01;100.00;64805.59;4993754;28;20076;-60
2021/08/09 04:05:52;;;;;;;4.72;2.83;;;;;;;-145.01;100.00;64805.59;4993308;28;20061;-60
2021/08/09 04:08:17;;;;;;;6.20;2.50;;;;;;;-145.01;100.00;64805.59;4993596;28;20042;-60
2021/08/09 04:10:42;;;;;;;8.70;2.47;;;;;;;-145.01;100.00;64805.59;4993314;28;20031;-60
2021/08/09 04:13:08;;;;;;;5.10;2.50;;;;;;;-145.01;100.00;64805.59;4993631;28;20030;-60
2021/08/09 04:15:33;;;;;;;7.38;2.45;;;;;;;-145.01;100.00;64805.59;4993276;28;20034;-60
2021/08/09 04:17:59;;;;;;;8.02;2.75;;;;;;;-145.01;100.00;64805.59;4993679;28;20030;-60
2021/08/09 04:20:24;;;;;;;7.85;2.65;;;;;;;-145.01;100.00;64805.59;4993349;28;20042;-60
2021/08/09 04:22:49;;;;;;;6.22;2.60;;;;;;;-145.01;100.00;64805.59;4992481;28;20030;-60
2021/08/09 04:25:15;;;;;;;6.90;2.67;;;;;;;-145.01;100.00;64805.59;4992377;28;20093;-60
2021/08/09 04:27:40;;;;;;;9.30;2.50;;;;;;;-145.01;100.00;64805.59;4993447;28;20465;-59
2021/08/09 04:30:06;;;;;;;10.15;2.63;;;;;;;-145.01;100.00;64805.59;4991763;28;20042;-60
2021/08/09 04:32:38;;;;;;;7.78;2.50;;;;;;;-145.01;100.00;64805.59;4993478;28;20034;-60
2021/08/09 04:35:05;;;;;;;5.70;2.70;;;;;;;-145.01;100.00;64805.59;4993553;28;20026;-60
2021/08/09 04:37:31;;;;;;;7.28;2.42;;;;;;;-145.01;100.00;64805.59;4993276;28;20040;-60
2021/08/09 04:39:56;;;;;;;8.93;2.60;;;;;;;-145.01;100.00;64805.59;4993485;28;20465;-60
2021/08/09 04:42:22;;;;;;;9.60;2.85;;;;;;;-145.01;100.00;64805.59;4992900;28;20043;-60
2021/08/09 04:44:47;;;;;;;8.40;2.25;;;;;;;-145.01;100.00;64805.59;4993263;28;20034;-60
2021/08/09 04:47:13;;;;;;;6.15;2.90;;;;;;;-145.01;100.00;64805.59;4992882;28;20042;-60
2021/08/09 04:49:38;;;;;;;9.40;2.70;;;;;;;-145.01;100.00;64805.59;4993336;28;20107;-60
2021/08/09 04:52:04;;;;;;;5.25;2.13;;;;;;;-145.01;100.00;64805.59;4992665;28;20432;-60
2021/08/09 04:54:29;;;;;;;4.43;2.22;;;;;;;-145.01;100.00;64805.59;4993159;28;20481;-60
2021/08/09 04:56:55;;;;;;;4.07;2.58;;;;;;;-145.01;100.00;64805.59;4992835;28;20035;-60
2021/08/09 04:59:20;;;;;;;10.02;2.63;;;;;;;-145.01;100.00;64805.59;4993340;28;20461;-60
2021/08/09 05:01:45;;;;;;;7.45;2.60;;;;;;;-145.01;100.00;64805.59;4992809;28;20035;-60
2021/08/09 05:04:11;;;;;;;6.28;2.22;;;;;;;-145.01;100.00;64805.59;4993213;28;20031;-60
2021/08/09 05:06:36;;;;;;;4.72;2.20;;;;;;;-145.01;100.00;64805.59;4992665;28;20050;-60
2021/08/09 05:09:02;;;;;;;7.22;2.20;;;;;;;-145.01;100.00;64805.59;4992906;28;20105;-60
2021/08/09 05:11:27;;;;;;;6.07;2.03;;;;;;;-145.01;100.00;64805.59;4992799;28;20396;-60
2021/08/09 05:13:53;;;;;;;5.25;2.10;;;;;;;-145.01;100.00;64805.59;4991753;28;20561;-60
2021/08/09 05:16:18;;;;;;;6.05;2.63;;;;;;;-145.01;100.00;64805.59;4992673;28;20034;-61
2021/08/09 05:18:44;;;;;;;4.63;2.30;;;;;;;-145.01;100.00;64805.59;4993069;28;20080;-60
2021/08/09 05:21:09;;;;;;;5.22;2.33;;;;;;;-145.01;100.00;64805.59;4992643;28;20512;-60
2021/08/09 05:23:35;;;;;;;8.68;2.30;;;;;;;-145.01;100.00;64805.59;4975574;28;20481;-60
2021/08/09 05:26:00;;;;;;;5.57;2.20;;;;;;;-145.01;100.00;64805.59;4992687;28;20481;-60
2021/08/09 05:28:25;;;;;;;5.60;2.20;;;;;;;-145.01;100.00;64805.59;4993116;28;20045;-60
2021/08/09 05:30:51;;;;;;;4.95;2.30;;;;;;;-145.01;100.00;64805.59;4992485;28;20405;-60
2021/08/09 05:33:16;;;;;;;6.18;2.42;;;;;;;-145.01;100.00;64805.59;4992841;28;20030;-60
2021/08/09 05:35:42;;;;;;;5.75;2.13;;;;;;;-145.01;100.00;64805.59;4992570;28;20141;-60
2021/08/09 05:38:08;;;;;;;7.93;2.40;;;;;;;-145.01;100.00;64805.59;4978843;28;20022;-61
2021/08/09 05:40:35;;;;;;;6.55;2.33;;;;;;;-145.01;100.00;64805.59;4996087;28;20062;-60
2021/08/09 05:43:01;;;;;;;6.18;2.20;;;;;;;-145.01;100.00;64805.59;4996394;28;20109;-60
2021/08/09 05:45:26;;;;;;;4.30;2.30;;;;;;;-145.01;100.00;64805.59;4996058;28;20049;-60
2021/08/09 05:47:51;;;;;;;6.57;2.20;;;;;;;-145.01;100.00;64805.59;4996345;28;20026;-60
2021/08/09 05:50:17;;;;;;;4.68;2.10;;;;;;;-145.01;100.00;64805.59;4994834;28;20084;-60
2021/08/09 05:52:42;;;;;;;5.95;2.00;;;;;;;-145.01;100.00;64805.59;4994908;28;20030;-60
2021/08/09 05:55:08;;;;;;;5.97;2.20;;;;;;;-145.01;100.00;64805.59;4994678;28;20056;-60
2021/08/09 05:57:34;;;;;;;6.40;2.20;;;;;;;-145.01;100.00;64805.59;4996478;28;20049;-60
2021/08/09 05:59:59;;;;;;;5.50;2.25;;;;;;;-145.01;100.00;64805.59;4996182;28;20483;-60
2021/08/09 06:02:24;;;;;;;5.03;2.10;;;;;;;-145.01;100.00;64805.59;4996075;28;20039;-60
2021/08/09 06:04:50;;;;;;;6.28;1.92;;;;;;;-145.01;100.00;64805.59;4996032;28;20022;-60
2021/08/09 06:07:16;;;;;;;3.92;1.90;;;;;;;-145.01;100.00;64805.59;4995711;28;20039;-60
2021/08/09 06:09:42;;;;;;;5.00;1.92;;;;;;;-145.01;100.00;64805.59;4995819;28;20077;-60
2021/08/09 06:12:08;;;;;;;4.95;2.20;;;;;;;-145.01;100.00;64805.59;4995301;28;20050;-60
2021/08/09 06:14:33;;;;;;;7.35;2.10;;;;;;;-145.01;100.00;64805.59;4996129;28;20030;-60
2021/08/09 06:16:59;;;;;;;2.88;1.73;;;;;;;-145.01;100.00;64805.59;4995827;28;20086;-59
2021/08/09 06:19:24;;;;;;;9.10;1.70;;;;;;;-145.01;100.00;64805.59;4996308;28;20050;-59
2021/08/09 06:21:50;;;;;;;8.00;2.00;;;;;;;-145.01;100.00;64805.59;4994075;28;20551;-59
2021/08/09 06:24:15;;;;;;;6.85;2.30;;;;;;;-145.01;100.00;64805.59;4995880;28;20022;-59
2021/08/09 06:26:40;;;;;;;5.90;1.90;;;;;;;-145.01;100.00;64805.59;4995390;28;20506;-59
2021/08/09 06:29:06;;;;;;;9.02;2.00;;;;;;;-145.01;100.00;64805.59;4995739;28;20034;-59
2021/08/09 06:31:31;;;;;;;5.68;2.00;;;;;;;-145.01;100.00;64805.59;4995109;28;20038;-59
2021/08/09 06:33:57;;;;;;;4.90;1.65;;;;;;;-145.01;100.00;64805.59;4995581;28;20031;-59
2021/08/09 06:36:22;;;;;;;8.15;2.22;;;;;;;-145.01;100.00;64805.59;4993858;28;20122;-58
2021/08/09 06:38:48;;;;;;;25.60;3.08;;;;;;;-145.01;100.00;64805.59;4995931;28;20030;-61
2021/08/09 06:41:21;;;;;;;28.90;3.30;;;;;;;-145.01;100.00;64805.59;4995407;28;20042;-60
2021/08/09 06:43:47;;;;;;;5.15;2.00;;;;;;;-145.01;100.00;64805.59;4995587;28;20366;-59
2021/08/09 06:46:13;;;;;;;6.75;2.28;;;;;;;-145.01;100.00;64805.59;4994986;28;20038;-60
2021/08/09 06:48:39;;;;;;;4.78;2.00;;;;;;;-145.01;100.00;64805.59;4994452;28;20026;-59
2021/08/09 06:51:04;;;;;;;12.95;2.58;;;;;;;-145.01;100.00;64805.59;4994729;28;20377;-59
2021/08/09 06:53:30;;;;;;;6.60;2.28;;;;;;;-145.01;100.00;64805.59;4995161;28;20022;-60
2021/08/09 06:55:55;;;;;;;12.05;2.63;;;;;;;-145.01;100.00;64805.59;4994815;28;20161;-59
2021/08/09 06:58:20;;;;;;;3.25;1.70;;;;;;;-145.01;100.00;64805.59;4995185;28;20041;-59
2021/08/09 07:00:46;;;;;;;6.28;2.08;;;;;;;-145.01;100.00;64805.59;4994837;28;20500;-59
2021/08/09 07:03:11;;;;;;;5.00;1.80;;;;;;;-145.01;100.00;64805.59;4995059;28;20018;-59
2021/08/09 07:05:45;;;;;;;4.50;2.00;;;;;;;-145.01;100.00;64805.59;4994568;28;20073;-59
2021/08/09 07:08:11;;;;;;;3.15;1.88;;;;;;;-145.01;100.00;64805.59;4994722;28;20053;-59
2021/08/09 07:10:37;;;;;;;6.32;2.20;;;;;;;-145.01;100.00;64805.59;4994453;28;20034;-59
2021/08/09 07:13:02;;;;;;;4.95;1.98;;;;;;;-145.01;100.00;64805.59;4994933;28;20031;-59
2021/08/09 07:15:28;;;;;;;5.57;1.88;;;;;;;-145.01;100.00;64805.59;4993723;28;20057;-59
2021/08/09 07:17:53;;;;;;;6.13;1.80;;;;;;;-145.01;100.00;64805.59;4994807;28;20026;-61
2021/08/09 07:20:19;;;;;;;6.50;2.10;;;;;;;-145.01;100.00;64805.59;4976843;28;20125;-59
2021/08/09 07:22:45;;;;;;;5.25;1.77;;;;;;;-145.01;100.00;64805.59;4994761;28;20089;-59
2021/08/09 07:25:11;;;;;;;5.57;2.05;;;;;;;-145.01;100.00;64805.59;4994382;28;20026;-59
2021/08/09 07:27:37;;;;;;;5.88;2.10;;;;;;;-145.01;100.00;64805.59;4994673;28;20127;-59
2021/08/09 07:30:06;;;;;;;3.40;1.80;;;;;;;-145.01;100.00;64805.59;4994063;28;20507;-60
2021/08/09 07:32:32;;;;;;;6.30;1.92;;;;;;;-145.01;100.00;64805.59;5025902;28;20034;-59
2021/08/09 07:34:57;;;;;;;4.68;1.70;;;;;;;-145.01;100.00;64805.59;4993975;28;20092;-59
2021/08/09 07:37:23;;;;;;;6.40;1.90;;;;;;;-145.01;100.00;64805.59;4993793;28;20058;-59
2021/08/09 07:39:48;;;;;;;11.40;1.90;;;;;;;-145.01;100.00;64805.59;4994377;28;20077;-59
2021/08/09 07:42:13;;;;;;;4.30;1.70;;;;;;;-145.01;100.00;64805.59;4993894;28;20069;-59
2021/08/09 07:44:39;;;;;;;5.40;1.70;;;;;;;-145.01;100.00;64805.59;4994639;28;20067;-59
2021/08/09 07:47:04;;;;;;;5.13;1.70;;;;;;;-145.01;100.00;64805.59;4993573;28;20042;-59
2021/08/09 07:49:30;;;;;;;4.63;1.85;;;;;;;-145.01;100.00;64805.59;4993947;28;20081;-59
2021/08/09 07:51:55;;;;;;;5.30;1.75;;;;;;;-145.01;100.00;64805.59;4993684;28;20046;-59
2021/08/09 07:54:21;;;;;;;3.22;1.73;;;;;;;-145.01;100.00;64805.59;4994155;28;20405;-59
2021/08/09 07:56:47;;;;;;;4.80;2.10;;;;;;;-145.01;100.00;64805.59;4993984;28;20042;-60
2021/08/09 07:59:12;;;;;;;5.22;1.98;;;;;;;-145.01;100.00;64805.59;4994242;28;20061;-59
2021/08/09 08:01:38;;;;;;;4.65;2.00;;;;;;;-145.01;100.00;64805.59;4993539;28;20042;-60
2021/08/09 08:04:03;;;;;;;3.92;1.80;;;;;;;-145.01;100.00;64805.59;4992653;28;20025;-60
2021/08/09 08:06:28;;;;;;;5.88;1.98;;;;;;;-145.01;100.00;64805.59;4993536;28;20045;-60
2021/08/09 08:08:54;;;;;;;5.32;1.80;;;;;;;-145.01;100.00;64805.59;4993721;28;20377;-60
2021/08/09 08:11:19;;;;;;;5.35;1.70;;;;;;;-145.01;100.00;64805.59;4993460;28;20426;-59
2021/08/09 08:13:45;;;;;;;5.88;2.05;;;;;;;-145.01;100.00;64805.59;4993707;28;20041;-60
2021/08/09 08:16:11;;;;;;;4.95;2.00;;;;;;;-145.01;100.00;64805.59;4992560;28;20034;-60
2021/08/09 08:18:36;;;;;;;9.07;2.00;;;;;;;-145.01;100.00;64805.59;4992804;28;20050;-60
2021/08/09 08:21:02;;;;;;;4.47;1.80;;;;;;;-145.01;100.00;64805.59;4993139;28;20041;-60
2021/08/09 08:23:27;;;;;;;7.20;1.88;;;;;;;-145.01;100.00;64805.59;4993502;28;20128;-60
2021/08/09 08:25:53;;;;;;;5.28;2.00;;;;;;;-145.01;100.00;64805.59;4993169;28;20026;-59
2021/08/09 08:28:18;;;;;;;7.43;2.05;;;;;;;-145.01;100.00;64805.59;4993526;28;20026;-59
2021/08/09 08:30:44;;;;;;;5.93;2.13;;;;;;;-145.01;100.00;64805.59;4992913;28;20057;-60
2021/08/09 08:33:09;;;;;;;4.47;1.90;;;;;;;-145.01;100.00;64805.59;4993668;28;20179;-60
2021/08/09 08:35:34;;;;;;;5.00;1.90;;;;;;;-145.01;100.00;64805.59;4993464;28;20485;-59
2021/08/09 08:38:00;;;;;;;5.45;2.38;;;;;;;-145.01;100.00;64805.59;4993483;28;20100;-60
2021/08/09 08:40:25;;;;;;;5.05;1.90;;;;;;;-145.01;100.00;64805.59;4993059;28;20032;-59
2021/08/09 08:42:52;;;;;;;6.28;2.10;;;;;;;-145.01;100.00;64805.59;4992245;28;20030;-60
2021/08/09 08:45:21;;;;;;;3.95;1.77;;;;;;;-145.01;100.00;64805.59;4992939;28;20030;-60
2021/08/09 08:47:47;;;;;;;6.93;2.03;;;;;;;-145.01;100.00;64805.59;4993495;28;20023;-60
2021/08/09 08:50:18;;;;;;;5.57;2.00;;;;;;;-145.01;100.00;64805.59;4993055;28;20034;-59
2021/08/09 08:52:47;;;;;;;6.72;2.08;;;;;;;-145.01;100.00;64805.59;4992222;28;20085;-59
2021/08/09 08:55:16;;;;;;;7.80;2.00;;;;;;;-145.01;100.00;64805.59;4993051;28;20033;-59
2021/08/09 08:57:41;;;;;;;5.30;2.08;;;;;;;-145.01;100.00;64805.59;4993358;28;20037;-60
2021/08/09 09:00:07;;;;;;;6.70;2.15;;;;;;;-145.01;100.00;64805.59;4992805;28;20453;-60
2021/08/09 09:02:34;;;;;;;5.82;2.25;;;;;;;-145.01;100.00;64805.59;4993521;28;20019;-59
2021/08/09 09:05:09;;;;;;;6.65;2.30;;;;;;;-145.01;100.00;64805.59;4992062;28;20030;-59
2021/08/09 09:07:35;;;;;;;5.82;2.25;;;;;;;-145.01;100.00;64805.59;4992793;28;20539;-60
2021/08/09 09:10:18;;;;;;;5.45;1.90;;;;;;;-145.01;100.00;64805.59;4993338;28;20066;-59
2021/08/09 09:12:44;;;;;;;6.82;1.98;;;;;;;-145.01;100.00;64805.59;4994885;28;20100;-59
2021/08/09 09:15:09;;;;;;;8.15;2.42;;;;;;;-145.01;100.00;64805.59;4996882;28;20030;-59
2021/08/09 09:17:36;;;;;;;6.50;1.88;;;;;;;-145.01;100.00;64805.59;4996127;28;20033;-60
2021/08/09 09:20:20;;;;;;;5.38;2.20;;;;;;;-145.01;100.00;64805.59;4996676;28;20026;-60
2021/08/09 09:22:45;;;;;;;6.80;2.00;;;;;;;-145.01;100.00;64805.59;4996988;28;20064;-60
2021/08/09 09:25:11;;;;;;;7.28;2.08;;;;;;;-145.01;100.00;64805.59;4996433;28;20018;-60
2021/08/09 09:27:36;;;;;;;7.03;2.08;;;;;;;-145.01;100.00;64805.59;4979381;28;20519;-59
2021/08/09 09:30:24;;;;;;;6.60;2.38;;;;;;;-145.01;100.00;64805.59;5027907;28;20081;-60
2021/08/09 09:33:03;;;;;;;6.05;1.83;;;;;;;-145.01;100.00;64805.59;4996682;28;20116;-60
2021/08/09 09:35:28;;;;;;;5.82;2.08;;;;;;;-145.01;100.00;64805.59;4996312;28;20030;-60
2021/08/09 09:37:54;;;;;;;5.32;1.98;;;;;;;-145.01;100.00;64805.59;4996984;28;20033;-59
2021/08/09 09:40:20;;;;;;;6.28;1.83;;;;;;;-145.01;100.00;64805.59;4996267;28;20022;-59
2021/08/09 09:42:46;;;;;;;8.32;2.00;;;;;;;-145.01;100.00;64805.59;4996447;28;20158;-59
2021/08/09 09:45:24;;;;;;;5.70;2.00;;;;;;;-145.01;100.00;64805.59;4995084;28;20113;-59
2021/08/09 09:48:08;;;;;;;6.97;2.53;;;;;;;-145.01;100.00;64805.59;4996432;28;20109;-59
2021/08/09 09:50:35;;;;;;;5.10;2.10;;;;;;;-145.01;100.00;64805.59;4995761;28;20378;-59
2021/08/09 09:53:21;;;;;;;7.93;2.20;;;;;;;-145.01;100.00;64805.59;4996532;28;20034;-60
2021/08/09 09:55:53;;;;;;;5.53;1.90;;;;;;;-145.01;100.00;64805.59;4995661;28;20498;-60
2021/08/09 09:58:18;;;;;;;4.85;2.13;;;;;;;-145.01;100.00;64805.59;4996319;28;20061;-59
2021/08/09 10:00:44;;;;;;;3.95;1.95;;;;;;;-145.01;100.00;64805.59;4995804;28;20066;-59
2021/08/09 10:03:10;;;;;;;7.88;2.20;;;;;;;-145.01;100.00;64805.59;4996225;28;20018;-59
2021/08/09 10:05:40;;;;;;;5.38;2.30;;;;;;;-145.01;100.00;64805.59;4996047;28;20040;-59
2021/08/09 10:08:15;;;;;;;4.03;1.73;;;;;;;-145.01;100.00;64805.59;4996040;28;20046;-59
2021/08/09 10:10:44;;;;;;;5.03;1.85;;;;;;;-145.01;100.00;64805.59;4995679;28;20070;-58
2021/08/09 10:13:10;;;;;;;7.53;2.25;;;;;;;-145.01;100.00;64805.59;4995056;28;20369;-59
2021/08/09 10:15:35;;;;;;;6.45;2.08;;;;;;;-145.01;100.00;64805.59;4978360;28;20041;-59
2021/08/09 10:18:00;;;;;;;5.05;2.15;;;;;;;-145.01;100.00;64805.59;4978851;28;20023;-61
2021/08/09 10:20:26;;;;;;;5.30;2.00;;;;;;;-145.01;100.00;64805.59;4994696;28;20045;-59
2021/08/09 10:22:59;;;;;;;10.93;2.47;;;;;;;-145.01;100.00;64805.59;4993516;28;20031;-59
2021/08/09 10:25:43;;;;;;;4.38;1.75;;;;;;;-145.01;100.00;64805.59;4995466;28;20092;-59
2021/08/09 10:28:08;;;;;;;5.95;2.03;;;;;;;-145.01;100.00;64805.59;4996280;28;20473;-60
2021/08/09 10:30:35;;;;;;;5.90;2.20;;;;;;;-145.01;100.00;64805.59;4995634;28;20153;-59
2021/08/09 10:33:01;;;;;;;5.47;2.00;;;;;;;-145.01;100.00;64805.59;4995691;28;20384;-59
2021/08/09 10:35:38;;;;;;;5.50;2.22;;;;;;;-145.01;100.00;64805.59;4995079;28;20041;-60
2021/08/09 10:38:17;;;;;;;5.57;2.05;;;;;;;-145.01;100.00;64805.59;4995526;28;20076;-59
2021/08/09 10:40:43;;;;;;;10.65;2.28;;;;;;;-145.01;100.00;64805.59;5026777;28;20035;-59
2021/08/09 10:43:09;;;;;;;6.63;2.08;;;;;;;-145.01;100.00;64805.59;4994371;28;20105;-59
2021/08/09 10:45:41;;;;;;;4.80;1.90;;;;;;;-145.01;100.00;64805.59;4993979;28;20500;-59
2021/08/09 10:48:09;;;;;;;4.90;1.77;;;;;;;-145.01;100.00;64805.59;4995412;28;20026;-59
2021/08/09 10:50:39;;;;;;;6.63;1.90;;;;;;;-145.01;100.00;64805.59;4994887;28;20038;-59
2021/08/09 10:53:04;;;;;;;9.60;2.03;;;;;;;-145.01;100.00;64805.59;4995417;28;20037;-59
2021/08/09 10:55:29;;;;;;;4.53;1.92;;;;;;;-145.01;100.00;64805.59;4993745;28;20038;-59
2021/08/09 10:57:55;;;;;;;5.18;2.05;;;;;;;-145.01;100.00;64805.59;4995324;28;20022;-59
2021/08/09 11:00:38;;;;;;;5.15;1.92;;;;;;;-145.01;100.00;64805.59;4994897;28;20050;-59
2021/08/09 11:03:11;;;;;;;6.65;2.08;;;;;;;-145.01;100.00;64805.59;5026733;28;20044;-59
2021/08/09 11:05:37;;;;;;;5.05;1.88;;;;;;;-145.01;100.00;64805.59;4994637;28;20030;-60
2021/08/09 11:08:14;;;;;;;5.90;2.30;;;;;;;-145.01;100.00;64805.59;4994767;28;20100;-59
2021/08/09 11:10:59;;;;;;;8.40;2.35;;;;;;;-145.01;100.00;64805.59;4994689;28;20111;-59